createdAt,value
2022-09-10T00:01:37.077Z,19.48
2022-09-10T00:04:11.306Z,19.41
2022-09-10T00:06:39.481Z,19.44
2022-09-10T00:09:08.587Z,19.40
2022-09-10T00:11:36.730Z,19.32
2022-09-10T00:14:07.860Z,19.35
2022-09-10T00:16:35.740Z,19.28
2022-09-10T00:19:03.431Z,19.35
2022-09-10T00:21:31.159Z,19.33
2022-09-10T00:23:59.053Z,19.30
2022-09-10T00:26:29.071Z,19.29
2022-09-10T00:28:58.184Z,19.44
2022-09-10T00:31:26.289Z,19.51
2022-09-10T00:33:54.146Z,19.48
2022-09-10T00:36:27.797Z,19.59
2022-09-10T00:38:58.227Z,19.59
2022-09-10T00:41:26.151Z,19.58
2022-09-10T00:44:05.223Z,19.32
2022-09-10T00:46:42.591Z,19.59
2022-09-10T00:49:16.939Z,19.63
2022-09-10T00:51:46.132Z,19.75
2022-09-10T00:54:17.387Z,19.78
2022-09-10T00:56:45.704Z,19.75
2022-09-10T00:59:14.839Z,19.38
2022-09-10T01:01:44.223Z,19.32
2022-09-10T01:04:12.222Z,19.35
2022-09-10T01:06:42.360Z,19.37
2022-09-10T01:09:10.274Z,19.42
2022-09-10T01:12:04.475Z,19.59
2022-09-10T01:14:45.715Z,19.46
2022-09-10T01:17:22.329Z,19.46
2022-09-10T01:20:13.584Z,19.35
2022-09-10T01:22:41.370Z,19.23
2022-09-10T01:25:33.387Z,19.40
2022-09-10T01:28:10.847Z,19.40
2022-09-10T01:30:47.114Z,19.23
2022-09-10T01:33:36.393Z,19.20
2022-09-10T01:36:09.903Z,19.56
2022-09-10T01:38:38.989Z,19.68
2022-09-10T01:41:06.624Z,19.66
2022-09-10T01:43:36.395Z,19.72
2022-09-10T01:46:34.036Z,19.60
2022-09-10T01:49:27.699Z,19.47
2022-09-10T01:52:08.154Z,19.37
2022-09-10T01:54:57.331Z,19.55
2022-09-10T01:57:43.687Z,19.61
2022-09-10T02:00:13.366Z,19.35
2022-09-10T02:03:07.444Z,19.40
2022-09-10T02:05:37.393Z,19.35
2022-09-10T02:08:12.589Z,19.24
2022-09-10T02:10:57.417Z,19.36
2022-09-10T02:13:27.882Z,19.18
2022-09-10T02:15:56.405Z,19.10
2022-09-10T02:18:25.433Z,19.18
2022-09-10T02:20:54.805Z,19.21
2022-09-10T02:23:26.688Z,19.22
2022-09-10T02:25:54.184Z,19.14
2022-09-10T02:28:25.783Z,19.30
2022-09-10T02:30:53.349Z,19.36
2022-09-10T02:33:20.890Z,19.24
2022-09-10T02:35:48.516Z,19.17
2022-09-10T02:38:16.319Z,19.31
2022-09-10T02:40:43.984Z,19.34
2022-09-10T02:43:16.384Z,19.15
2022-09-10T02:45:43.943Z,19.21
2022-09-10T02:48:11.999Z,19.21
2022-09-10T02:50:40.370Z,19.25
2022-09-10T02:53:07.695Z,19.32
2022-09-10T02:55:35.358Z,19.04
2022-09-10T02:58:02.812Z,19.00
2022-09-10T03:00:30.181Z,18.94
2022-09-10T03:03:02.802Z,18.96
2022-09-10T03:05:31.320Z,18.99
2022-09-10T03:07:59.640Z,18.94
2022-09-10T03:10:26.912Z,18.87
2022-09-10T03:12:54.330Z,18.86
2022-09-10T03:15:22.295Z,18.87
2022-09-10T03:17:50.177Z,18.79
2022-09-10T03:20:18.904Z,18.77
2022-09-10T03:22:46.735Z,18.73
2022-09-10T03:25:14.234Z,18.72
2022-09-10T03:27:41.512Z,18.78
2022-09-10T03:30:09.601Z,18.90
2022-09-10T03:32:37.050Z,18.78
2022-09-10T03:35:05.057Z,18.70
2022-09-10T03:37:32.941Z,18.51
2022-09-10T03:40:00.274Z,18.56
2022-09-10T03:42:27.818Z,18.49
2022-09-10T03:44:55.900Z,18.10
2022-09-10T03:47:23.449Z,18.07
2022-09-10T03:49:50.885Z,18.13
2022-09-10T03:52:20.366Z,18.08
2022-09-10T03:54:47.621Z,17.96
2022-09-10T03:57:15.190Z,17.87
2022-09-10T03:59:43.084Z,17.73
2022-09-10T04:02:10.975Z,17.78
2022-09-10T04:04:38.806Z,17.65
2022-09-10T04:07:12.553Z,17.70
2022-09-10T04:09:41.078Z,17.61
2022-09-10T04:12:08.505Z,17.43
2022-09-10T04:14:35.795Z,17.47
2022-09-10T04:17:03.479Z,17.36
2022-09-10T04:19:31.215Z,17.27
2022-09-10T04:21:59.081Z,17.34
2022-09-10T04:24:26.851Z,17.29
2022-09-10T04:26:54.124Z,17.25
2022-09-10T04:29:23.148Z,17.35
2022-09-10T04:31:50.924Z,17.32
2022-09-10T04:34:18.541Z,17.44
2022-09-10T04:36:45.777Z,17.56
2022-09-10T04:39:13.796Z,17.60
2022-09-10T04:41:41.302Z,17.66
2022-09-10T04:44:09.365Z,17.48
2022-09-10T04:46:36.923Z,17.56
2022-09-10T04:49:05.270Z,17.61
2022-09-10T04:51:32.569Z,17.70
2022-09-10T04:54:00.196Z,17.75
2022-09-10T04:56:29.283Z,17.79
2022-09-10T04:58:56.780Z,17.92
2022-09-10T05:01:27.663Z,18.03
2022-09-10T05:03:57.985Z,17.96
2022-09-10T05:06:25.775Z,18.00
2022-09-10T05:08:55.374Z,17.84
2022-09-10T05:11:22.658Z,17.68
2022-09-10T05:13:50.315Z,17.71
2022-09-10T05:16:21.503Z,17.70
2022-09-10T05:18:52.099Z,17.55
2022-09-10T05:21:20.589Z,17.46
2022-09-10T05:23:48.165Z,17.51
2022-09-10T05:26:15.731Z,17.49
2022-09-10T05:28:43.466Z,17.39
2022-09-10T05:31:11.558Z,17.70
2022-09-10T05:33:39.023Z,17.64
2022-09-10T05:36:07.881Z,17.70
2022-09-10T05:38:39.832Z,17.85
2022-09-10T05:41:10.975Z,17.72
2022-09-10T05:43:38.925Z,17.79
2022-09-10T05:46:06.240Z,17.70
2022-09-10T05:48:33.952Z,17.70
2022-09-10T05:51:01.447Z,17.67
2022-09-10T05:53:28.706Z,17.79
2022-09-10T05:55:56.276Z,17.68
2022-09-10T05:58:23.736Z,17.66
2022-09-10T06:00:51.475Z,17.45
2022-09-10T06:03:19.552Z,17.41
2022-09-10T06:05:51.260Z,17.49
2022-09-10T06:08:23.261Z,17.31
2022-09-10T06:10:58.617Z,17.51
2022-09-10T06:13:27.037Z,17.61
2022-09-10T06:15:56.010Z,17.41
2022-09-10T06:18:23.743Z,17.58
2022-09-10T06:21:05.040Z,17.50
2022-09-10T06:23:35.057Z,17.79
2022-09-10T06:26:05.214Z,17.89
2022-09-10T06:28:33.197Z,17.85
2022-09-10T06:31:01.546Z,17.73
2022-09-10T06:33:30.783Z,17.90
2022-09-10T06:36:00.326Z,17.92
2022-09-10T06:38:30.179Z,17.97
2022-09-10T06:41:02.119Z,17.97
2022-09-10T06:43:32.906Z,17.93
2022-09-10T06:46:56.690Z,17.99
2022-09-10T06:49:28.589Z,18.11
2022-09-10T06:52:16.574Z,18.34
2022-09-10T06:55:06.790Z,18.23
2022-09-10T06:57:55.020Z,18.48
2022-09-10T07:00:42.764Z,18.47
2022-09-10T07:03:10.393Z,18.57
2022-09-10T07:05:37.665Z,18.55
2022-09-10T07:08:04.927Z,18.76
2022-09-10T07:10:32.863Z,18.89
2022-09-10T07:13:00.230Z,19.04
2022-09-10T07:15:28.379Z,19.26
2022-09-10T07:17:59.243Z,19.13
2022-09-10T07:20:27.094Z,19.26
2022-09-10T07:22:56.327Z,19.47
2022-09-10T07:25:47.624Z,19.60
2022-09-10T07:28:17.858Z,19.43
2022-09-10T07:30:46.044Z,19.43
2022-09-10T07:33:13.589Z,19.28
2022-09-10T07:35:41.198Z,19.29
2022-09-10T07:38:12.745Z,19.34
2022-09-10T07:40:40.360Z,19.39
2022-09-10T07:43:07.749Z,19.57
2022-09-10T07:45:35.725Z,19.44
2022-09-10T07:48:22.610Z,19.47
2022-09-10T07:51:10.646Z,19.44
2022-09-10T07:53:59.640Z,19.61
2022-09-10T07:56:48.723Z,19.61
2022-09-10T07:59:36.441Z,19.47
2022-09-10T08:02:24.838Z,19.46
2022-09-10T08:05:14.025Z,19.52
2022-09-10T08:08:01.828Z,19.46
2022-09-10T08:10:49.992Z,19.51
2022-09-10T08:13:39.742Z,19.41
2022-09-10T08:16:29.732Z,19.01
2022-09-10T08:19:17.605Z,19.13
2022-09-10T08:22:07.424Z,18.97
2022-09-10T08:24:58.705Z,18.86
2022-09-10T08:27:26.797Z,18.94
2022-09-10T08:29:54.353Z,18.68
2022-09-10T08:32:21.957Z,18.52
2022-09-10T08:34:49.520Z,18.63
2022-09-10T08:37:17.660Z,18.29
2022-09-10T08:39:44.999Z,18.32
2022-09-10T08:42:22.092Z,18.27
2022-09-10T08:44:53.682Z,18.42
2022-09-10T08:47:46.061Z,18.39
2022-09-10T08:50:35.181Z,18.47
2022-09-10T08:53:18.175Z,18.63
2022-09-10T08:55:48.816Z,18.65
2022-09-10T08:58:20.643Z,18.64
2022-09-10T09:00:53.729Z,18.60
2022-09-10T09:03:25.600Z,18.50
2022-09-10T09:06:02.058Z,18.82
2022-09-10T09:08:45.719Z,18.90
2022-09-10T09:11:34.017Z,18.89
2022-09-10T09:14:24.936Z,19.00
2022-09-10T09:17:03.384Z,19.11
2022-09-10T09:19:44.400Z,19.24
2022-09-10T09:22:18.911Z,19.32
2022-09-10T09:24:58.468Z,19.42
2022-09-10T09:27:36.563Z,19.55
2022-09-10T09:30:16.090Z,19.66
2022-09-10T09:32:44.292Z,19.63
2022-09-10T09:35:34.937Z,19.93
2022-09-10T09:38:22.017Z,20.32
2022-09-10T09:41:01.350Z,20.60
2022-09-10T09:43:51.574Z,20.69
2022-09-10T09:46:22.969Z,21.08
2022-09-10T09:48:52.041Z,21.11
2022-09-10T09:51:20.866Z,21.47
2022-09-10T09:54:01.015Z,21.42
2022-09-10T09:56:41.717Z,21.87
2022-09-10T09:59:14.767Z,22.25
2022-09-10T10:01:42.855Z,22.59
2022-09-10T10:04:22.080Z,22.42
2022-09-10T10:06:58.187Z,22.49
2022-09-10T10:09:30.485Z,22.42
2022-09-10T10:12:02.851Z,22.85
2022-09-10T10:14:32.258Z,22.86
2022-09-10T10:17:01.062Z,22.49
2022-09-10T10:19:37.101Z,22.96
2022-09-10T10:22:15.410Z,22.46
2022-09-10T10:24:43.275Z,22.58
2022-09-10T10:27:20.038Z,22.82
2022-09-10T10:29:55.659Z,23.22
2022-09-10T10:32:34.177Z,23.38
2022-09-10T10:35:20.240Z,23.36
2022-09-10T10:37:56.787Z,23.51
2022-09-10T10:40:26.243Z,23.60
2022-09-10T10:43:21.692Z,23.71
2022-09-10T10:46:11.217Z,23.37
2022-09-10T10:48:45.202Z,23.28
2022-09-10T10:51:31.490Z,23.10
2022-09-10T10:54:24.304Z,22.80
2022-09-10T10:56:58.373Z,23.20
2022-09-10T11:00:05.673Z,23.33
2022-09-10T11:03:03.645Z,23.41
2022-09-10T11:05:46.739Z,23.27
2022-09-10T11:08:18.764Z,23.50
2022-09-10T11:10:59.382Z,23.80
2022-09-10T11:13:31.598Z,23.77
2022-09-10T11:16:08.797Z,24.07
2022-09-10T11:18:47.481Z,24.36
2022-09-10T11:21:30.217Z,24.35
2022-09-10T11:24:17.308Z,24.02
2022-09-10T11:27:03.282Z,24.50
2022-09-10T11:29:56.673Z,24.64
2022-09-10T11:32:40.463Z,24.88
2022-09-10T11:35:21.589Z,24.98
2022-09-10T11:38:24.306Z,25.11
2022-09-10T11:41:10.268Z,25.34
2022-09-10T11:43:54.535Z,25.48
2022-09-10T11:46:30.638Z,24.79
2022-09-10T11:49:58.874Z,24.52
2022-09-10T11:52:28.233Z,24.92
2022-09-10T11:54:58.068Z,24.96
2022-09-10T11:57:59.901Z,25.17
2022-09-10T12:00:34.844Z,24.95
2022-09-10T12:03:17.915Z,24.94
2022-09-10T12:05:54.469Z,24.31
2022-09-10T12:08:54.119Z,24.42
2022-09-10T12:11:35.198Z,23.83
2022-09-10T12:14:14.888Z,23.87
2022-09-10T12:16:49.239Z,24.52
2022-09-10T12:19:26.097Z,24.65
2022-09-10T12:22:06.857Z,24.88
2022-09-10T12:24:37.287Z,24.64
2022-09-10T12:27:07.546Z,24.11
2022-09-10T12:29:37.460Z,23.85
2022-09-10T12:32:07.802Z,23.80
2022-09-10T12:34:37.127Z,24.04
2022-09-10T12:37:04.320Z,24.53
2022-09-10T12:39:32.249Z,24.95
2022-09-10T12:42:26.140Z,25.13
2022-09-10T12:44:57.556Z,24.85
2022-09-10T12:47:41.593Z,24.88
2022-09-10T12:50:36.757Z,24.96
2022-09-10T12:53:47.139Z,24.80
2022-09-10T12:56:49.807Z,24.55
2022-09-10T12:59:52.559Z,24.32
2022-09-10T13:02:27.204Z,24.31
2022-09-10T13:05:30.261Z,24.84
2022-09-10T13:08:03.353Z,24.43
2022-09-10T13:10:31.239Z,24.33
2022-09-10T13:13:02.263Z,24.79
2022-09-10T13:15:33.830Z,24.87
2022-09-10T13:18:01.510Z,24.64
2022-09-10T13:20:31.587Z,25.27
2022-09-10T13:22:59.768Z,25.39
2022-09-10T13:25:47.976Z,25.40
2022-09-10T13:28:29.712Z,25.47
2022-09-10T13:31:11.060Z,25.56
2022-09-10T13:33:50.921Z,25.46
2022-09-10T13:36:30.598Z,25.29
2022-09-10T13:39:20.577Z,25.61
2022-09-10T13:41:57.149Z,25.42
2022-09-10T13:44:42.970Z,25.46
2022-09-10T13:47:16.485Z,25.43
2022-09-10T13:49:52.391Z,25.58
2022-09-10T13:52:43.414Z,25.66
2022-09-10T13:55:18.310Z,24.68
2022-09-10T13:57:48.870Z,25.03
2022-09-10T14:00:49.218Z,25.04
2022-09-10T14:03:22.630Z,25.31
2022-09-10T14:05:53.517Z,25.48
2022-09-10T14:08:30.063Z,25.94
2022-09-10T14:11:01.273Z,25.42
2022-09-10T14:13:37.631Z,25.36
2022-09-10T14:16:15.929Z,24.83
2022-09-10T14:18:49.902Z,24.84
2022-09-10T14:21:20.517Z,24.75
2022-09-10T14:23:51.696Z,24.74
2022-09-10T14:26:22.222Z,24.93
2022-09-10T14:29:01.104Z,25.04
2022-09-10T14:31:39.714Z,25.03
2022-09-10T14:34:32.375Z,25.33
2022-09-10T14:37:22.309Z,24.84
2022-09-10T14:39:53.327Z,25.07
2022-09-10T14:42:26.047Z,25.43
2022-09-10T14:44:54.273Z,24.65
2022-09-10T14:47:33.411Z,24.94
2022-09-10T14:50:26.874Z,25.05
2022-09-10T14:53:00.181Z,24.34
2022-09-10T14:55:32.499Z,24.48
2022-09-10T14:58:04.215Z,24.63
2022-09-10T15:00:34.189Z,24.56
2022-09-10T15:03:01.622Z,24.72
2022-09-10T15:05:28.852Z,24.21
2022-09-10T15:07:56.687Z,24.16
2022-09-10T15:10:26.855Z,24.20
2022-09-10T15:12:54.253Z,23.99
2022-09-10T15:15:22.051Z,23.68
2022-09-10T15:17:57.889Z,23.76
2022-09-10T15:20:28.435Z,23.87
2022-09-10T15:23:01.714Z,23.82
2022-09-10T15:25:38.157Z,23.73
2022-09-10T15:28:06.455Z,23.82
2022-09-10T15:30:34.332Z,24.30
2022-09-10T15:33:06.349Z,24.37
2022-09-10T15:35:33.873Z,24.17
2022-09-10T15:38:01.127Z,23.68
2022-09-10T15:40:28.499Z,23.62
2022-09-10T15:42:56.028Z,23.61
2022-09-10T15:45:23.725Z,23.59
2022-09-10T15:47:51.156Z,23.67
2022-09-10T15:50:18.893Z,23.66
2022-09-10T15:52:48.506Z,23.30
2022-09-10T15:55:16.066Z,23.20
2022-09-10T15:57:44.238Z,22.96
2022-09-10T16:00:11.919Z,22.96
2022-09-10T16:02:39.477Z,23.00
2022-09-10T16:05:07.033Z,22.73
2022-09-10T16:07:34.269Z,22.69
2022-09-10T16:10:02.062Z,22.60
2022-09-10T16:12:29.290Z,22.44
2022-09-10T16:14:56.469Z,22.30
2022-09-10T16:17:23.973Z,22.26
2022-09-10T16:19:51.183Z,22.31
2022-09-10T16:22:20.932Z,22.22
2022-09-10T16:24:48.739Z,21.99
2022-09-10T16:27:16.199Z,22.05
2022-09-10T16:29:43.637Z,21.78
2022-09-10T16:32:11.188Z,21.94
2022-09-10T16:34:40.728Z,21.89
2022-09-10T16:37:12.163Z,21.73
2022-09-10T16:39:40.416Z,21.74
2022-09-10T16:42:07.934Z,21.52
2022-09-10T16:44:35.569Z,21.54
2022-09-10T16:47:03.331Z,21.39
2022-09-10T16:49:33.531Z,21.48
2022-09-10T16:52:04.053Z,21.33
2022-09-10T16:54:31.869Z,21.19
2022-09-10T16:56:59.294Z,21.24
2022-09-10T16:59:26.647Z,21.28
2022-09-10T17:01:54.585Z,21.22
2022-09-10T17:04:28.634Z,21.02
2022-09-10T17:06:57.279Z,21.02
2022-09-10T17:09:25.109Z,20.99
2022-09-10T17:11:52.441Z,20.99
2022-09-10T17:14:23.404Z,20.87
2022-09-10T17:16:50.621Z,20.88
2022-09-10T17:19:20.726Z,20.71
2022-09-10T17:21:48.707Z,20.90
2022-09-10T17:24:15.852Z,20.75
2022-09-10T17:26:43.084Z,21.02
2022-09-10T17:29:15.856Z,20.56
2022-09-10T17:31:44.203Z,20.59
2022-09-10T17:34:12.338Z,20.49
2022-09-10T17:36:41.068Z,20.49
2022-09-10T17:39:08.525Z,20.39
2022-09-10T17:41:39.519Z,20.35
2022-09-10T17:44:09.708Z,20.27
2022-09-10T17:46:37.481Z,20.76
2022-09-10T17:49:05.115Z,20.42
2022-09-10T17:51:33.999Z,20.76
2022-09-10T17:54:01.894Z,20.66
2022-09-10T17:56:29.723Z,20.37
2022-09-10T17:59:04.392Z,20.01
2022-09-10T18:01:34.499Z,20.20
2022-09-10T18:04:02.330Z,20.40
2022-09-10T18:06:29.703Z,20.26
2022-09-10T18:08:58.013Z,20.40
2022-09-10T18:11:31.157Z,20.32
2022-09-10T18:13:59.296Z,19.88
2022-09-10T18:16:29.931Z,19.61
2022-09-10T18:18:59.490Z,19.59
2022-09-10T18:21:29.698Z,19.55
2022-09-10T18:24:04.182Z,19.22
2022-09-10T18:26:37.131Z,19.53
2022-09-10T18:29:14.514Z,19.29
2022-09-10T18:31:48.926Z,19.15
2022-09-10T18:34:22.597Z,19.05
2022-09-10T18:36:55.309Z,18.94
2022-09-10T18:39:23.759Z,18.93
2022-09-10T18:41:51.852Z,18.87
2022-09-10T18:44:22.017Z,18.79
2022-09-10T18:46:50.567Z,18.72
2022-09-10T18:49:21.379Z,18.81
2022-09-10T18:51:50.964Z,18.65
2022-09-10T18:54:19.741Z,18.59
2022-09-10T18:56:47.930Z,18.61
2022-09-10T18:59:19.804Z,18.51
2022-09-10T19:01:48.109Z,18.48
2022-09-10T19:04:18.089Z,18.46
2022-09-10T19:06:46.387Z,18.44
2022-09-10T19:09:19.241Z,18.39
2022-09-10T19:11:48.614Z,18.31
2022-09-10T19:14:27.488Z,18.32
2022-09-10T19:16:56.367Z,18.21
2022-09-10T19:19:26.367Z,18.15
2022-09-10T19:21:58.300Z,18.16
2022-09-10T19:24:50.870Z,18.00
2022-09-10T19:27:14.946Z,18.01
2022-09-10T19:29:42.541Z,17.90
2022-09-10T19:32:09.844Z,17.70
2022-09-10T19:34:37.245Z,17.73
2022-09-10T19:37:04.812Z,17.72
2022-09-10T19:39:32.103Z,17.70
2022-09-10T19:41:59.362Z,17.61
2022-09-10T19:44:26.940Z,17.64
2022-09-10T19:46:54.427Z,17.53
2022-09-10T19:49:21.652Z,17.56
2022-09-10T19:51:51.616Z,17.53
2022-09-10T19:54:18.842Z,17.54
2022-09-10T19:56:46.557Z,17.44
2022-09-10T19:59:14.369Z,17.46
2022-09-10T20:01:42.379Z,17.55
2022-09-10T20:04:11.218Z,17.47
2022-09-10T20:06:38.978Z,17.53
2022-09-10T20:09:07.575Z,17.38
2022-09-10T20:11:35.720Z,17.49
2022-09-10T20:14:06.499Z,17.48
2022-09-10T20:16:44.758Z,17.55
2022-09-10T20:19:17.009Z,17.39
2022-09-10T20:21:44.554Z,17.46
2022-09-10T20:24:12.079Z,17.31
2022-09-10T20:26:39.644Z,17.34
2022-09-10T20:29:18.565Z,17.32
2022-09-10T20:31:46.935Z,17.21
2022-09-10T20:34:20.004Z,17.25
2022-09-10T20:36:49.382Z,17.16
2022-09-10T20:39:19.660Z,17.23
2022-09-10T20:41:47.026Z,17.28
2022-09-10T20:44:16.487Z,17.19
2022-09-10T20:46:44.446Z,17.06
2022-09-10T20:49:13.074Z,17.10
2022-09-10T20:51:40.846Z,17.21
2022-09-10T20:54:11.306Z,17.09
2022-09-10T20:56:41.836Z,16.98
2022-09-10T20:59:11.927Z,16.99
2022-09-10T21:01:39.659Z,17.04
2022-09-10T21:04:07.305Z,17.05
2022-09-10T21:06:34.936Z,17.08
2022-09-10T21:09:03.682Z,17.01
2022-09-10T21:11:33.539Z,16.99
2022-09-10T21:14:02.546Z,16.97
2022-09-10T21:16:37.944Z,17.08
2022-09-10T21:19:08.783Z,17.00
2022-09-10T21:21:37.062Z,17.00
2022-09-10T21:24:12.726Z,16.86
2022-09-10T21:26:43.051Z,16.92
2022-09-10T21:29:13.308Z,16.86
2022-09-10T21:31:41.170Z,16.82
2022-09-10T21:34:08.796Z,16.93
2022-09-10T21:36:37.649Z,16.82
2022-09-10T21:39:07.625Z,16.82
2022-09-10T21:41:41.022Z,16.71
2022-09-10T21:44:12.054Z,16.81
2022-09-10T21:46:56.546Z,16.68
2022-09-10T21:49:27.170Z,16.61
2022-09-10T21:51:55.627Z,16.63
2022-09-10T21:54:23.018Z,16.62
2022-09-10T21:56:51.691Z,16.91
2022-09-10T21:59:20.617Z,16.51
2022-09-10T22:01:48.832Z,16.37
2022-09-10T22:04:21.483Z,16.39
2022-09-10T22:06:50.113Z,16.45
2022-09-10T22:09:19.930Z,16.51
2022-09-10T22:11:49.116Z,16.31
2022-09-10T22:14:18.918Z,16.20
2022-09-10T22:16:46.690Z,16.21
2022-09-10T22:19:24.938Z,16.17
2022-09-10T22:21:53.922Z,16.24
2022-09-10T22:24:21.170Z,16.33
2022-09-10T22:26:48.608Z,16.09
2022-09-10T22:29:18.704Z,16.14
2022-09-10T22:31:48.118Z,16.28
2022-09-10T22:34:17.049Z,16.18
2022-09-10T22:36:45.564Z,16.04
2022-09-10T22:39:17.724Z,16.14
2022-09-10T22:41:45.435Z,16.09
2022-09-10T22:44:12.974Z,16.09
2022-09-10T22:46:40.674Z,16.04
2022-09-10T22:49:08.569Z,16.00
2022-09-10T22:51:38.633Z,15.96
2022-09-10T22:54:06.324Z,15.96
2022-09-10T22:56:34.442Z,16.06
2022-09-10T22:59:05.572Z,16.06
2022-09-10T23:01:54.521Z,15.91
2022-09-10T23:04:22.611Z,16.01
2022-09-10T23:06:50.016Z,16.01
2022-09-10T23:09:17.523Z,15.90
2022-09-10T23:11:45.557Z,15.91
2022-09-10T23:14:16.929Z,15.88
2022-09-10T23:16:46.472Z,15.93
2022-09-10T23:19:19.469Z,15.77
2022-09-10T23:21:54.554Z,15.70
2022-09-10T23:24:24.502Z,15.82
2022-09-10T23:26:52.516Z,15.78
2022-09-10T23:29:19.860Z,15.68
2022-09-10T23:31:47.210Z,15.76
2022-09-10T23:34:19.327Z,15.72
2022-09-10T23:36:47.885Z,15.59
2022-09-10T23:39:18.272Z,15.57
2022-09-10T23:41:46.502Z,15.58
2022-09-10T23:44:13.828Z,15.59
2022-09-10T23:46:41.735Z,15.54
2022-09-10T23:49:09.165Z,15.47
2022-09-10T23:51:36.887Z,15.41
2022-09-10T23:54:04.754Z,15.50
2022-09-10T23:56:32.165Z,15.49
2022-09-10T23:58:59.622Z,15.39
